Davisville, West Virginia
Current Conditions -  °F | °C
As of 3:57 PM on Saturday 20 Dec 2014 (Local Time) from KPKB Reporting Station
Overcast Overcast  
Wind Chill: 34°   Ceiling: 2600
Heat Index: 34°   Visibility: 10mi
Dew Point: 22°   Wind: 3mph
Humidity: 61%   Direction: 40°NE
Pressure: 30.26"   Gusts: NA
Location:  39.2°N, 81.5°W
Report Text: KPKB 202057Z 04003KT 10SM BKN026 OVC060 01/M06 A3026 RMK AO2 T00111056
Loading
Personal Weather Stations






























Interactive Weather Map New forecast layout! Learn more

10-Day Weather Forecast

Advertisements
Track Severe Weather on mobile